sensor_id;sensor_type;location;lat;lon;timestamp;temperature;humidity
46117;DHT22;32591;48.102;11.772;2023-02-28T00:00:52;-1.50;99.90
46117;DHT22;32591;48.102;11.772;2023-02-28T00:03:19;-1.50;99.90
46117;DHT22;32591;48.102;11.772;2023-02-28T00:05:46;-1.50;99.90
46117;DHT22;32591;48.102;11.772;2023-02-28T00:08:14;-1.60;99.90
46117;DHT22;32591;48.102;11.772;2023-02-28T00:10:41;-1.50;99.90
46117;DHT22;32591;48.102;11.772;2023-02-28T00:13:08;-1.60;99.90
46117;DHT22;32591;48.102;11.772;2023-02-28T00:15:36;-1.60;99.90
46117;DHT22;32591;48.102;11.772;2023-02-28T00:18:04;-1.60;99.90
46117;DHT22;32591;48.102;11.772;2023-02-28T00:20:31;-1.60;99.90
46117;DHT22;32591;48.102;11.772;2023-02-28T00:22:58;-1.60;99.90
46117;DHT22;32591;48.102;11.772;2023-02-28T00:25:26;-1.70;99.90
46117;DHT22;32591;48.102;11.772;2023-02-28T00:27:53;-1.70;99.90
46117;DHT22;32591;48.102;11.772;2023-02-28T00:30:20;-1.70;99.90
46117;DHT22;32591;48.102;11.772;2023-02-28T00:32:49;-1.70;99.90
46117;DHT22;32591;48.102;11.772;2023-02-28T00:35:18;-1.80;99.90
46117;DHT22;32591;48.102;11.772;2023-02-28T00:37:45;-1.80;99.90
46117;DHT22;32591;48.102;11.772;2023-02-28T00:40:12;-1.80;99.90
46117;DHT22;32591;48.102;11.772;2023-02-28T00:42:39;-1.80;99.90
46117;DHT22;32591;48.102;11.772;2023-02-28T00:45:07;-1.80;99.90
46117;DHT22;32591;48.102;11.772;2023-02-28T00:47:34;-1.70;99.90
46117;DHT22;32591;48.102;11.772;2023-02-28T00:50:02;-1.70;99.90
46117;DHT22;32591;48.102;11.772;2023-02-28T00:52:30;-1.80;99.90
46117;DHT22;32591;48.102;11.772;2023-02-28T00:54:57;-1.70;99.90
46117;DHT22;32591;48.102;11.772;2023-02-28T00:57:24;-1.80;99.90
46117;DHT22;32591;48.102;11.772;2023-02-28T00:59:51;-1.80;99.90
46117;DHT22;32591;48.102;11.772;2023-02-28T01:02:20;-1.80;99.90
46117;DHT22;32591;48.102;11.772;2023-02-28T01:04:47;-1.80;99.90
46117;DHT22;32591;48.102;11.772;2023-02-28T01:07:14;-1.80;99.90
46117;DHT22;32591;48.102;11.772;2023-02-28T01:09:43;-1.80;99.90
46117;DHT22;32591;48.102;11.772;2023-02-28T01:12:10;-1.80;99.90
46117;DHT22;32591;48.102;11.772;2023-02-28T01:14:37;-1.90;99.90
46117;DHT22;32591;48.102;11.772;2023-02-28T01:17:04;-1.90;99.90
46117;DHT22;32591;48.102;11.772;2023-02-28T01:19:31;-1.90;99.90
46117;DHT22;32591;48.102;11.772;2023-02-28T01:22:01;-1.90;99.90
46117;DHT22;32591;48.102;11.772;2023-02-28T01:24:28;-2.00;99.90
46117;DHT22;32591;48.102;11.772;2023-02-28T01:26:56;-2.00;99.90
46117;DHT22;32591;48.102;11.772;2023-02-28T01:29:23;-2.00;99.90
46117;DHT22;32591;48.102;11.772;2023-02-28T01:31:50;-2.00;99.90
46117;DHT22;32591;48.102;11.772;2023-02-28T01:34:17;-2.00;99.90
46117;DHT22;32591;48.102;11.772;2023-02-28T01:36:45;-2.10;99.90
46117;DHT22;32591;48.102;11.772;2023-02-28T01:39:12;-2.10;99.90
46117;DHT22;32591;48.102;11.772;2023-02-28T01:41:39;-2.10;99.90
46117;DHT22;32591;48.102;11.772;2023-02-28T01:47:38;-2.30;99.90
46117;DHT22;32591;48.102;11.772;2023-02-28T01:50:10;-2.30;99.90
46117;DHT22;32591;48.102;11.772;2023-02-28T01:52:39;-2.30;99.90
46117;DHT22;32591;48.102;11.772;2023-02-28T01:55:08;-2.30;99.90
46117;DHT22;32591;48.102;11.772;2023-02-28T01:57:39;-2.30;99.90
46117;DHT22;32591;48.102;11.772;2023-02-28T02:00:13;-2.30;99.90
46117;DHT22;32591;48.102;11.772;2023-02-28T02:02:42;-2.30;99.90
46117;DHT22;32591;48.102;11.772;2023-02-28T02:05:14;-2.30;99.90
46117;DHT22;32591;48.102;11.772;2023-02-28T02:07:45;-2.30;99.90
46117;DHT22;32591;48.102;11.772;2023-02-28T02:10:15;-2.30;99.90
46117;DHT22;32591;48.102;11.772;2023-02-28T02:13:08;-2.30;99.90
46117;DHT22;32591;48.102;11.772;2023-02-28T02:15:46;-2.30;99.90
46117;DHT22;32591;48.102;11.772;2023-02-28T02:18:23;-2.40;99.90
46117;DHT22;32591;48.102;11.772;2023-02-28T02:24:58;-2.40;99.90
46117;DHT22;32591;48.102;11.772;2023-02-28T02:27:59;-2.40;99.90
46117;DHT22;32591;48.102;11.772;2023-02-28T02:34:02;-2.50;99.90
46117;DHT22;32591;48.102;11.772;2023-02-28T02:36:49;-2.50;99.90
46117;DHT22;32591;48.102;11.772;2023-02-28T02:39:23;-2.60;99.90
46117;DHT22;32591;48.102;11.772;2023-02-28T02:41:58;-2.60;99.90
46117;DHT22;32591;48.102;11.772;2023-02-28T02:44:30;-2.60;99.90
46117;DHT22;32591;48.102;11.772;2023-02-28T02:47:03;-2.60;99.90
46117;DHT22;32591;48.102;11.772;2023-02-28T02:49:36;-2.60;99.90
46117;DHT22;32591;48.102;11.772;2023-02-28T02:52:06;-2.50;99.90
46117;DHT22;32591;48.102;11.772;2023-02-28T02:54:36;-2.50;99.90
46117;DHT22;32591;48.102;11.772;2023-02-28T02:57:07;-2.50;99.90
46117;DHT22;32591;48.102;11.772;2023-02-28T02:59:38;-2.50;99.90
46117;DHT22;32591;48.102;11.772;2023-02-28T03:02:08;-2.50;99.90
46117;DHT22;32591;48.102;11.772;2023-02-28T03:04:43;-2.50;99.90
46117;DHT22;32591;48.102;11.772;2023-02-28T03:07:12;-2.50;99.90
46117;DHT22;32591;48.102;11.772;2023-02-28T03:09:39;-2.50;99.90
46117;DHT22;32591;48.102;11.772;2023-02-28T03:12:09;-2.50;99.90
46117;DHT22;32591;48.102;11.772;2023-02-28T03:14:51;-2.50;99.90
46117;DHT22;32591;48.102;11.772;2023-02-28T03:17:47;-2.50;99.90
46117;DHT22;32591;48.102;11.772;2023-02-28T03:20:32;-2.50;99.90
46117;DHT22;32591;48.102;11.772;2023-02-28T03:23:10;-2.50;99.90
46117;DHT22;32591;48.102;11.772;2023-02-28T03:25:51;-2.50;99.90
46117;DHT22;32591;48.102;11.772;2023-02-28T03:28:31;-2.60;99.90
46117;DHT22;32591;48.102;11.772;2023-02-28T03:30:59;-2.50;99.90
46117;DHT22;32591;48.102;11.772;2023-02-28T03:33:34;-2.60;99.90
46117;DHT22;32591;48.102;11.772;2023-02-28T03:36:06;-2.60;99.90
46117;DHT22;32591;48.102;11.772;2023-02-28T03:38:40;-2.70;99.90
46117;DHT22;32591;48.102;11.772;2023-02-28T03:41:12;-2.60;99.90
46117;DHT22;32591;48.102;11.772;2023-02-28T03:43:45;-2.60;99.90
46117;DHT22;32591;48.102;11.772;2023-02-28T03:46:18;-2.60;99.90
46117;DHT22;32591;48.102;11.772;2023-02-28T03:48:51;-2.60;99.90
46117;DHT22;32591;48.102;11.772;2023-02-28T03:51:25;-2.60;99.90
46117;DHT22;32591;48.102;11.772;2023-02-28T03:53:54;-2.70;99.90
46117;DHT22;32591;48.102;11.772;2023-02-28T03:56:28;-2.50;99.90
46117;DHT22;32591;48.102;11.772;2023-02-28T03:59:02;-2.70;99.90
46117;DHT22;32591;48.102;11.772;2023-02-28T04:01:35;-2.70;99.90
46117;DHT22;32591;48.102;11.772;2023-02-28T04:04:04;-2.70;99.90
46117;DHT22;32591;48.102;11.772;2023-02-28T04:06:33;-2.70;99.90
46117;DHT22;32591;48.102;11.772;2023-02-28T04:09:01;-2.70;99.90
46117;DHT22;32591;48.102;11.772;2023-02-28T04:11:33;-2.70;99.90
46117;DHT22;32591;48.102;11.772;2023-02-28T04:14:01;-2.70;99.90
46117;DHT22;32591;48.102;11.772;2023-02-28T04:16:29;-2.70;99.90
46117;DHT22;32591;48.102;11.772;2023-02-28T04:18:56;-2.70;99.90
46117;DHT22;32591;48.102;11.772;2023-02-28T04:21:28;-2.70;99.90
46117;DHT22;32591;48.102;11.772;2023-02-28T04:23:56;-2.70;99.90
46117;DHT22;32591;48.102;11.772;2023-02-28T04:26:28;-2.70;99.90
46117;DHT22;32591;48.102;11.772;2023-02-28T04:28:56;-2.70;99.90
46117;DHT22;32591;48.102;11.772;2023-02-28T04:31:23;-2.70;99.90
46117;DHT22;32591;48.102;11.772;2023-02-28T04:33:50;-2.70;99.90
46117;DHT22;32591;48.102;11.772;2023-02-28T04:36:17;-2.70;99.90
46117;DHT22;32591;48.102;11.772;2023-02-28T04:38:45;-2.70;99.90
46117;DHT22;32591;48.102;11.772;2023-02-28T04:41:13;-2.60;99.90
46117;DHT22;32591;48.102;11.772;2023-02-28T04:43:41;-2.70;99.90
46117;DHT22;32591;48.102;11.772;2023-02-28T04:46:08;-2.60;99.90
46117;DHT22;32591;48.102;11.772;2023-02-28T04:48:38;-2.60;99.90
46117;DHT22;32591;48.102;11.772;2023-02-28T04:51:07;-2.60;99.90
46117;DHT22;32591;48.102;11.772;2023-02-28T04:53:37;-2.60;99.90
46117;DHT22;32591;48.102;11.772;2023-02-28T04:56:05;-2.60;99.90
46117;DHT22;32591;48.102;11.772;2023-02-28T04:58:34;-2.60;99.90
46117;DHT22;32591;48.102;11.772;2023-02-28T05:01:02;-2.60;99.90
46117;DHT22;32591;48.102;11.772;2023-02-28T05:03:30;-2.60;99.90
46117;DHT22;32591;48.102;11.772;2023-02-28T05:05:57;-2.60;99.90
46117;DHT22;32591;48.102;11.772;2023-02-28T05:08:23;-2.60;99.90
46117;DHT22;32591;48.102;11.772;2023-02-28T05:10:50;-2.50;99.90
46117;DHT22;32591;48.102;11.772;2023-02-28T05:13:17;-2.50;99.90
46117;DHT22;32591;48.102;11.772;2023-02-28T05:15:45;-2.40;99.90
46117;DHT22;32591;48.102;11.772;2023-02-28T05:18:13;-2.40;99.90
46117;DHT22;32591;48.102;11.772;2023-02-28T05:20:40;-2.40;99.90
46117;DHT22;32591;48.102;11.772;2023-02-28T05:23:08;-2.40;99.90
46117;DHT22;32591;48.102;11.772;2023-02-28T05:25:41;-2.40;99.90
46117;DHT22;32591;48.102;11.772;2023-02-28T05:28:08;-2.30;99.90
46117;DHT22;32591;48.102;11.772;2023-02-28T05:30:35;-2.30;99.90
46117;DHT22;32591;48.102;11.772;2023-02-28T05:33:03;-2.30;99.90
46117;DHT22;32591;48.102;11.772;2023-02-28T05:35:30;-2.20;99.90
46117;DHT22;32591;48.102;11.772;2023-02-28T05:37:57;-2.20;99.90
46117;DHT22;32591;48.102;11.772;2023-02-28T05:40:25;-2.10;99.90
46117;DHT22;32591;48.102;11.772;2023-02-28T05:42:51;-2.10;99.90
46117;DHT22;32591;48.102;11.772;2023-02-28T05:45:18;-2.00;99.90
46117;DHT22;32591;48.102;11.772;2023-02-28T05:47:45;-2.00;99.90
46117;DHT22;32591;48.102;11.772;2023-02-28T05:50:13;-2.00;99.90
46117;DHT22;32591;48.102;11.772;2023-02-28T05:52:40;-2.00;99.90
46117;DHT22;32591;48.102;11.772;2023-02-28T05:55:07;-2.00;99.90
46117;DHT22;32591;48.102;11.772;2023-02-28T05:57:35;-2.00;99.90
46117;DHT22;32591;48.102;11.772;2023-02-28T06:00:02;-2.00;99.90
46117;DHT22;32591;48.102;11.772;2023-02-28T06:02:30;-1.90;99.90
46117;DHT22;32591;48.102;11.772;2023-02-28T06:04:57;-1.90;99.90
46117;DHT22;32591;48.102;11.772;2023-02-28T06:07:25;-1.90;99.90
46117;DHT22;32591;48.102;11.772;2023-02-28T06:09:52;-1.90;99.90
46117;DHT22;32591;48.102;11.772;2023-02-28T06:12:18;-1.90;99.90
46117;DHT22;32591;48.102;11.772;2023-02-28T06:14:45;-1.90;99.90
46117;DHT22;32591;48.102;11.772;2023-02-28T06:17:12;-1.90;99.90
46117;DHT22;32591;48.102;11.772;2023-02-28T06:19:39;-0.80;99.90
46117;DHT22;32591;48.102;11.772;2023-02-28T06:22:07;-0.80;99.90
46117;DHT22;32591;48.102;11.772;2023-02-28T06:24:35;-1.00;99.90
46117;DHT22;32591;48.102;11.772;2023-02-28T06:27:02;-1.10;99.90
46117;DHT22;32591;48.102;11.772;2023-02-28T06:29:30;-1.30;99.90
46117;DHT22;32591;48.102;11.772;2023-02-28T06:31:58;-1.30;99.90
46117;DHT22;32591;48.102;11.772;2023-02-28T06:34:25;-1.30;99.90
46117;DHT22;32591;48.102;11.772;2023-02-28T06:36:52;-1.30;99.90
46117;DHT22;32591;48.102;11.772;2023-02-28T06:39:19;-1.30;99.90
46117;DHT22;32591;48.102;11.772;2023-02-28T06:41:47;-1.30;99.90
46117;DHT22;32591;48.102;11.772;2023-02-28T06:44:18;-1.30;99.90
46117;DHT22;32591;48.102;11.772;2023-02-28T06:46:47;-1.20;99.90
46117;DHT22;32591;48.102;11.772;2023-02-28T06:49:15;-1.10;99.90
46117;DHT22;32591;48.102;11.772;2023-02-28T06:51:43;-1.00;99.90
46117;DHT22;32591;48.102;11.772;2023-02-28T06:54:11;-1.00;99.90
46117;DHT22;32591;48.102;11.772;2023-02-28T06:56:39;-1.10;99.90
46117;DHT22;32591;48.102;11.772;2023-02-28T06:59:07;-1.20;99.90
46117;DHT22;32591;48.102;11.772;2023-02-28T07:01:34;-1.30;99.90
46117;DHT22;32591;48.102;11.772;2023-02-28T07:04:01;-1.50;99.90
46117;DHT22;32591;48.102;11.772;2023-02-28T07:06:28;-1.50;99.90
46117;DHT22;32591;48.102;11.772;2023-02-28T07:08:55;-1.50;99.90
46117;DHT22;32591;48.102;11.772;2023-02-28T07:11:22;-1.40;99.90
46117;DHT22;32591;48.102;11.772;2023-02-28T07:13:51;-1.40;99.90
46117;DHT22;32591;48.102;11.772;2023-02-28T07:16:20;-1.30;99.90
46117;DHT22;32591;48.102;11.772;2023-02-28T07:18:47;-1.20;99.90
46117;DHT22;32591;48.102;11.772;2023-02-28T07:21:15;-1.10;99.90
46117;DHT22;32591;48.102;11.772;2023-02-28T07:23:42;-1.20;99.90
46117;DHT22;32591;48.102;11.772;2023-02-28T07:26:10;-1.20;99.90
46117;DHT22;32591;48.102;11.772;2023-02-28T07:28:40;-1.10;99.90
46117;DHT22;32591;48.102;11.772;2023-02-28T07:31:08;-1.10;99.90
46117;DHT22;32591;48.102;11.772;2023-02-28T07:33:37;-0.90;99.90
46117;DHT22;32591;48.102;11.772;2023-02-28T07:36:06;-0.80;99.90
46117;DHT22;32591;48.102;11.772;2023-02-28T07:38:35;-0.80;99.90
46117;DHT22;32591;48.102;11.772;2023-02-28T07:41:03;-0.70;99.90
46117;DHT22;32591;48.102;11.772;2023-02-28T07:43:31;-0.60;99.90
46117;DHT22;32591;48.102;11.772;2023-02-28T07:46:01;-0.70;99.90
46117;DHT22;32591;48.102;11.772;2023-02-28T07:48:29;-0.80;99.90
46117;DHT22;32591;48.102;11.772;2023-02-28T07:50:58;-0.90;99.90
46117;DHT22;32591;48.102;11.772;2023-02-28T07:53:26;-0.90;99.90
46117;DHT22;32591;48.102;11.772;2023-02-28T07:55:55;-0.90;99.90
46117;DHT22;32591;48.102;11.772;2023-02-28T07:58:23;-0.90;99.90
46117;DHT22;32591;48.102;11.772;2023-02-28T08:00:50;-1.00;99.90
46117;DHT22;32591;48.102;11.772;2023-02-28T08:03:17;-0.90;99.90
46117;DHT22;32591;48.102;11.772;2023-02-28T08:05:46;-0.80;99.90
46117;DHT22;32591;48.102;11.772;2023-02-28T08:08:16;-0.70;99.90
46117;DHT22;32591;48.102;11.772;2023-02-28T08:10:43;-0.70;99.90
46117;DHT22;32591;48.102;11.772;2023-02-28T08:13:10;-0.80;99.90
46117;DHT22;32591;48.102;11.772;2023-02-28T08:15:37;-0.80;99.90
46117;DHT22;32591;48.102;11.772;2023-02-28T08:18:04;-0.70;99.90
46117;DHT22;32591;48.102;11.772;2023-02-28T08:20:31;-0.60;99.90
46117;DHT22;32591;48.102;11.772;2023-02-28T08:22:58;0.40;99.90
46117;DHT22;32591;48.102;11.772;2023-02-28T08:25:26;0.40;99.90
46117;DHT22;32591;48.102;11.772;2023-02-28T08:27:53;0.40;99.90
46117;DHT22;32591;48.102;11.772;2023-02-28T08:30:20;0.20;99.90
46117;DHT22;32591;48.102;11.772;2023-02-28T08:32:47;0.10;99.90
46117;DHT22;32591;48.102;11.772;2023-02-28T08:35:14;0.00;99.90
46117;DHT22;32591;48.102;11.772;2023-02-28T08:37:41;-0.10;99.90
46117;DHT22;32591;48.102;11.772;2023-02-28T08:40:08;-0.20;99.90
46117;DHT22;32591;48.102;11.772;2023-02-28T08:42:37;-0.10;99.90
46117;DHT22;32591;48.102;11.772;2023-02-28T08:45:05;-0.20;99.90
46117;DHT22;32591;48.102;11.772;2023-02-28T08:47:32;-0.30;99.90
46117;DHT22;32591;48.102;11.772;2023-02-28T08:49:59;-0.40;99.90
46117;DHT22;32591;48.102;11.772;2023-02-28T08:52:26;-0.50;99.90
46117;DHT22;32591;48.102;11.772;2023-02-28T08:54:53;-0.50;99.90
46117;DHT22;32591;48.102;11.772;2023-02-28T08:57:20;-0.50;99.90
46117;DHT22;32591;48.102;11.772;2023-02-28T08:59:49;-0.40;99.90
46117;DHT22;32591;48.102;11.772;2023-02-28T09:02:16;-0.20;99.90
46117;DHT22;32591;48.102;11.772;2023-02-28T09:04:43;-0.20;99.90
46117;DHT22;32591;48.102;11.772;2023-02-28T09:07:10;-0.10;99.90
46117;DHT22;32591;48.102;11.772;2023-02-28T09:09:37;-0.20;99.90
46117;DHT22;32591;48.102;11.772;2023-02-28T09:12:19;-0.20;99.90
46117;DHT22;32591;48.102;11.772;2023-02-28T09:14:46;-0.20;99.90
46117;DHT22;32591;48.102;11.772;2023-02-28T09:17:14;0.00;99.90
46117;DHT22;32591;48.102;11.772;2023-02-28T09:19:41;0.10;99.90
46117;DHT22;32591;48.102;11.772;2023-02-28T09:22:09;0.20;99.90
46117;DHT22;32591;48.102;11.772;2023-02-28T09:24:37;0.10;99.90
46117;DHT22;32591;48.102;11.772;2023-02-28T09:27:05;0.10;99.90
46117;DHT22;32591;48.102;11.772;2023-02-28T09:29:33;0.20;99.90
46117;DHT22;32591;48.102;11.772;2023-02-28T09:32:01;0.30;99.90
46117;DHT22;32591;48.102;11.772;2023-02-28T09:34:29;0.30;99.90
46117;DHT22;32591;48.102;11.772;2023-02-28T09:36:57;0.20;99.90
46117;DHT22;32591;48.102;11.772;2023-02-28T09:39:24;0.10;99.90
46117;DHT22;32591;48.102;11.772;2023-02-28T09:41:52;-0.10;99.90
46117;DHT22;32591;48.102;11.772;2023-02-28T09:44:26;-0.20;99.90
46117;DHT22;32591;48.102;11.772;2023-02-28T09:47:01;-0.30;99.90
46117;DHT22;32591;48.102;11.772;2023-02-28T09:49:38;0.00;99.90
46117;DHT22;32591;48.102;11.772;2023-02-28T09:52:10;0.10;99.90
46117;DHT22;32591;48.102;11.772;2023-02-28T09:54:39;0.20;99.90
46117;DHT22;32591;48.102;11.772;2023-02-28T09:57:08;0.30;99.90
46117;DHT22;32591;48.102;11.772;2023-02-28T09:59:44;0.40;99.90
46117;DHT22;32591;48.102;11.772;2023-02-28T10:02:46;0.40;99.90
46117;DHT22;32591;48.102;11.772;2023-02-28T10:05:22;0.40;99.90
46117;DHT22;32591;48.102;11.772;2023-02-28T10:08:01;0.50;99.90
46117;DHT22;32591;48.102;11.772;2023-02-28T10:10:36;0.60;99.90
46117;DHT22;32591;48.102;11.772;2023-02-28T10:13:11;0.60;99.90
46117;DHT22;32591;48.102;11.772;2023-02-28T10:15:41;0.80;99.90
46117;DHT22;32591;48.102;11.772;2023-02-28T10:18:13;1.00;99.90
46117;DHT22;32591;48.102;11.772;2023-02-28T10:20:45;0.90;99.90
46117;DHT22;32591;48.102;11.772;2023-02-28T10:23:16;0.90;99.90
46117;DHT22;32591;48.102;11.772;2023-02-28T10:25:50;0.80;99.90
46117;DHT22;32591;48.102;11.772;2023-02-28T10:28:20;0.90;99.90
46117;DHT22;32591;48.102;11.772;2023-02-28T10:30:48;0.90;99.90
46117;DHT22;32591;48.102;11.772;2023-02-28T10:33:22;1.10;99.90
46117;DHT22;32591;48.102;11.772;2023-02-28T10:35:52;1.20;99.90
46117;DHT22;32591;48.102;11.772;2023-02-28T10:38:21;1.40;99.90
46117;DHT22;32591;48.102;11.772;2023-02-28T10:40:50;1.60;99.90
46117;DHT22;32591;48.102;11.772;2023-02-28T10:43:22;1.70;99.90
46117;DHT22;32591;48.102;11.772;2023-02-28T10:45:58;1.90;99.90
46117;DHT22;32591;48.102;11.772;2023-02-28T10:48:30;2.10;99.90
46117;DHT22;32591;48.102;11.772;2023-02-28T10:51:01;2.20;99.90
46117;DHT22;32591;48.102;11.772;2023-02-28T10:53:39;2.30;99.90
46117;DHT22;32591;48.102;11.772;2023-02-28T10:56:16;2.30;99.90
46117;DHT22;32591;48.102;11.772;2023-02-28T10:58:54;2.50;99.90
46117;DHT22;32591;48.102;11.772;2023-02-28T11:01:24;2.70;99.90
46117;DHT22;32591;48.102;11.772;2023-02-28T11:04:01;2.80;99.90
46117;DHT22;32591;48.102;11.772;2023-02-28T11:06:31;2.90;99.90
46117;DHT22;32591;48.102;11.772;2023-02-28T11:09:02;2.80;99.90
46117;DHT22;32591;48.102;11.772;2023-02-28T11:11:43;3.00;99.90
46117;DHT22;32591;48.102;11.772;2023-02-28T11:14:18;3.10;99.90
46117;DHT22;32591;48.102;11.772;2023-02-28T11:16:46;3.00;99.90
46117;DHT22;32591;48.102;11.772;2023-02-28T11:19:19;2.90;99.90
46117;DHT22;32591;48.102;11.772;2023-02-28T11:21:53;2.90;99.90
46117;DHT22;32591;48.102;11.772;2023-02-28T11:24:24;2.90;99.90
46117;DHT22;32591;48.102;11.772;2023-02-28T11:26:54;2.90;99.90
46117;DHT22;32591;48.102;11.772;2023-02-28T11:29:23;2.70;99.90
46117;DHT22;32591;48.102;11.772;2023-02-28T11:32:04;2.70;99.90
46117;DHT22;32591;48.102;11.772;2023-02-28T11:34:37;2.70;99.90
46117;DHT22;32591;48.102;11.772;2023-02-28T11:37:11;2.70;99.90
46117;DHT22;32591;48.102;11.772;2023-02-28T11:39:39;2.70;99.90
46117;DHT22;32591;48.102;11.772;2023-02-28T11:42:40;2.80;99.90
46117;DHT22;32591;48.102;11.772;2023-02-28T11:45:21;2.80;99.90
46117;DHT22;32591;48.102;11.772;2023-02-28T11:47:56;2.90;99.90
46117;DHT22;32591;48.102;11.772;2023-02-28T11:50:42;3.00;99.90
46117;DHT22;32591;48.102;11.772;2023-02-28T11:53:35;3.20;99.90
46117;DHT22;32591;48.102;11.772;2023-02-28T11:56:12;3.40;99.90
46117;DHT22;32591;48.102;11.772;2023-02-28T11:58:50;3.60;99.90
46117;DHT22;32591;48.102;11.772;2023-02-28T12:01:41;3.80;99.90
46117;DHT22;32591;48.102;11.772;2023-02-28T12:04:24;3.90;99.90
46117;DHT22;32591;48.102;11.772;2023-02-28T12:06:57;3.70;99.90
46117;DHT22;32591;48.102;11.772;2023-02-28T12:09:43;3.80;99.90
46117;DHT22;32591;48.102;11.772;2023-02-28T12:12:23;3.80;99.90
46117;DHT22;32591;48.102;11.772;2023-02-28T12:15:22;3.70;99.90
46117;DHT22;32591;48.102;11.772;2023-02-28T12:18:10;3.90;99.90
46117;DHT22;32591;48.102;11.772;2023-02-28T12:20:49;4.10;99.90
46117;DHT22;32591;48.102;11.772;2023-02-28T12:23:29;4.20;99.90
46117;DHT22;32591;48.102;11.772;2023-02-28T12:26:15;4.10;99.90
46117;DHT22;32591;48.102;11.772;2023-02-28T12:28:49;4.10;99.90
46117;DHT22;32591;48.102;11.772;2023-02-28T12:31:21;4.20;99.90
46117;DHT22;32591;48.102;11.772;2023-02-28T12:33:53;4.20;99.90
46117;DHT22;32591;48.102;11.772;2023-02-28T12:36:23;4.20;99.90
46117;DHT22;32591;48.102;11.772;2023-02-28T12:38:54;4.40;99.90
46117;DHT22;32591;48.102;11.772;2023-02-28T12:41:28;4.40;99.90
46117;DHT22;32591;48.102;11.772;2023-02-28T12:44:01;4.60;99.90
46117;DHT22;32591;48.102;11.772;2023-02-28T12:46:33;4.50;99.90
46117;DHT22;32591;48.102;11.772;2023-02-28T12:49:06;4.60;99.90
46117;DHT22;32591;48.102;11.772;2023-02-28T12:51:37;4.60;99.90
46117;DHT22;32591;48.102;11.772;2023-02-28T12:54:10;4.50;99.90
46117;DHT22;32591;48.102;11.772;2023-02-28T12:56:47;4.50;99.90
46117;DHT22;32591;48.102;11.772;2023-02-28T12:59:23;4.60;99.90
46117;DHT22;32591;48.102;11.772;2023-02-28T13:02:02;4.80;99.90
46117;DHT22;32591;48.102;11.772;2023-02-28T13:04:47;4.80;99.90
46117;DHT22;32591;48.102;11.772;2023-02-28T13:07:45;4.80;99.90
46117;DHT22;32591;48.102;11.772;2023-02-28T13:10:20;4.90;99.90
46117;DHT22;32591;48.102;11.772;2023-02-28T13:12:49;4.70;99.90
46117;DHT22;32591;48.102;11.772;2023-02-28T13:15:19;4.80;99.90
46117;DHT22;32591;48.102;11.772;2023-02-28T13:17:51;4.70;99.90
46117;DHT22;32591;48.102;11.772;2023-02-28T13:20:21;4.90;99.90
46117;DHT22;32591;48.102;11.772;2023-02-28T13:22:52;5.00;99.90
46117;DHT22;32591;48.102;11.772;2023-02-28T13:25:53;5.00;99.90
46117;DHT22;32591;48.102;11.772;2023-02-28T13:32:37;4.80;99.90
46117;DHT22;32591;48.102;11.772;2023-02-28T13:35:42;5.20;99.90
46117;DHT22;32591;48.102;11.772;2023-02-28T13:38:34;5.10;99.90
46117;DHT22;32591;48.102;11.772;2023-02-28T13:41:44;5.00;99.90
46117;DHT22;32591;48.102;11.772;2023-02-28T13:44:13;4.90;99.90
46117;DHT22;32591;48.102;11.772;2023-02-28T13:47:18;5.10;99.90
46117;DHT22;32591;48.102;11.772;2023-02-28T13:49:52;5.10;99.60
46117;DHT22;32591;48.102;11.772;2023-02-28T13:52:22;5.20;99.90
46117;DHT22;32591;48.102;11.772;2023-02-28T13:55:24;5.40;99.90
46117;DHT22;32591;48.102;11.772;2023-02-28T13:58:15;5.50;99.40
46117;DHT22;32591;48.102;11.772;2023-02-28T14:01:12;5.50;99.90
46117;DHT22;32591;48.102;11.772;2023-02-28T14:04:03;5.50;99.20
46117;DHT22;32591;48.102;11.772;2023-02-28T14:06:47;5.30;99.10
46117;DHT22;32591;48.102;11.772;2023-02-28T14:09:23;5.60;99.90
46117;DHT22;32591;48.102;11.772;2023-02-28T14:11:52;5.90;99.30
46117;DHT22;32591;48.102;11.772;2023-02-28T14:14:54;5.80;99.90
46117;DHT22;32591;48.102;11.772;2023-02-28T14:17:22;5.80;97.90
46117;DHT22;32591;48.102;11.772;2023-02-28T14:19:51;6.00;97.50
46117;DHT22;32591;48.102;11.772;2023-02-28T14:22:45;5.90;97.00
46117;DHT22;32591;48.102;11.772;2023-02-28T14:25:22;5.60;96.80
46117;DHT22;32591;48.102;11.772;2023-02-28T14:28:04;5.60;99.70
46117;DHT22;32591;48.102;11.772;2023-02-28T14:30:51;5.60;99.90
46117;DHT22;32591;48.102;11.772;2023-02-28T14:33:25;5.60;97.00
46117;DHT22;32591;48.102;11.772;2023-02-28T14:36:04;5.50;97.60
46117;DHT22;32591;48.102;11.772;2023-02-28T14:38:41;5.50;98.50
46117;DHT22;32591;48.102;11.772;2023-02-28T14:41:17;5.30;97.00
46117;DHT22;32591;48.102;11.772;2023-02-28T14:43:56;5.30;99.50
46117;DHT22;32591;48.102;11.772;2023-02-28T14:46:27;5.60;99.90
46117;DHT22;32591;48.102;11.772;2023-02-28T14:48:56;5.80;98.70
46117;DHT22;32591;48.102;11.772;2023-02-28T14:51:24;5.80;95.70
46117;DHT22;32591;48.102;11.772;2023-02-28T14:53:57;6.10;97.40
46117;DHT22;32591;48.102;11.772;2023-02-28T14:56:27;5.70;96.50
46117;DHT22;32591;48.102;11.772;2023-02-28T14:58:57;5.70;96.90
46117;DHT22;32591;48.102;11.772;2023-02-28T15:01:25;5.60;97.30
46117;DHT22;32591;48.102;11.772;2023-02-28T15:04:00;5.60;96.00
46117;DHT22;32591;48.102;11.772;2023-02-28T15:06:29;5.40;96.30
46117;DHT22;32591;48.102;11.772;2023-02-28T15:09:10;5.30;97.40
46117;DHT22;32591;48.102;11.772;2023-02-28T15:11:39;5.40;98.00
46117;DHT22;32591;48.102;11.772;2023-02-28T15:14:06;5.40;97.70
46117;DHT22;32591;48.102;11.772;2023-02-28T15:16:41;5.30;97.30
46117;DHT22;32591;48.102;11.772;2023-02-28T15:19:14;5.20;98.20
46117;DHT22;32591;48.102;11.772;2023-02-28T15:21:47;5.20;99.30
46117;DHT22;32591;48.102;11.772;2023-02-28T15:24:19;5.20;97.80
46117;DHT22;32591;48.102;11.772;2023-02-28T15:26:54;5.10;99.10
46117;DHT22;32591;48.102;11.772;2023-02-28T15:29:24;4.90;98.30
46117;DHT22;32591;48.102;11.772;2023-02-28T15:31:56;4.80;99.40
46117;DHT22;32591;48.102;11.772;2023-02-28T15:34:31;4.70;99.20
46117;DHT22;32591;48.102;11.772;2023-02-28T15:37:01;4.70;99.50
46117;DHT22;32591;48.102;11.772;2023-02-28T15:39:29;4.80;99.80
46117;DHT22;32591;48.102;11.772;2023-02-28T15:42:12;5.00;99.90
46117;DHT22;32591;48.102;11.772;2023-02-28T15:44:43;5.10;99.80
46117;DHT22;32591;48.102;11.772;2023-02-28T15:47:16;4.90;99.90
46117;DHT22;32591;48.102;11.772;2023-02-28T15:49:47;4.80;99.90
46117;DHT22;32591;48.102;11.772;2023-02-28T15:52:18;4.90;99.90
46117;DHT22;32591;48.102;11.772;2023-02-28T15:54:48;5.10;99.40
46117;DHT22;32591;48.102;11.772;2023-02-28T15:57:18;5.30;98.90
46117;DHT22;32591;48.102;11.772;2023-02-28T15:59:51;5.40;99.70
46117;DHT22;32591;48.102;11.772;2023-02-28T16:02:21;5.50;99.40
46117;DHT22;32591;48.102;11.772;2023-02-28T16:04:57;5.60;97.60
46117;DHT22;32591;48.102;11.772;2023-02-28T16:07:29;5.50;99.90